INDIA METEOROLOGICAL DEPARTMENT, R.M.C. NEW DELHI
Airport METARs
Date : 18-06-2019
Sl. # Airport METAR
1 Allahabad VEAB 180430Z 34006KT 6000 FEW100 34/21 Q1002 NOSIG=
2 Amritsar VIAR 180430Z 14005KT 4000 HZ FEW035 SCT100 28/18 Q1003 NOSIG=
3 Bhuntar VIBR 180330Z 00000KT 6000 FEW030 BKN080 19/15 Q1010=
4 Delhi VIDP 180430Z 30015G25KT 4000 HZ SCT030 FEW040CB BKN080 25/19 Q1005 TEMPO 34015G25KT 1500 TSRA=
5 Dehradun VIDN 180430Z 28003KT 6000 SCT030 OVC060 25/19 Q1006=
6 Gaggal VIGG 180400Z 10004KT 6000 SCT040 28/15 Q1009=
7 Fursatganj VERB 180400Z 32005KT 5000 HZ FEW025 BKN100 31/19 Q1000=
8 Jaipur VIJP 180430Z 03005KT 1700 R27/1700 TSRA SCT025 FEW035CB OVC080 23/22 Q1006 BECMG 3000 -TSRA=
9 Lucknow VILK 180430Z 30009KT 4000 HZ SCT020 SCT025 OVC090 31/19 Q1001 NOSIG=
10 Pantnagar VIPT 180430Z 27008KT 5000 HZ FEW020 BKN100 29/22 Q1003 =
11 Safdarjung VIDD 180430Z 28010KT 2000 HZ FEW030 SCT035CB BKN100 25/20 Q1004 NOSIG=
12 Shimla VISM 180430Z 23005KT 6000 HZ FEW050 BKN060 21/12 Q1013=
13 Udaipur VAUD 180430Z 22008KT 5000 HZ SCT030 SCT035 29/22 Q1005 NOSIG=
14 Varanasi VEBN 180430Z 30012KT 4000 HZ NSC 36/20 Q1001 NOSIG=
15 Leh VILH 180330Z 27005KT 6000 SOCCRERA SCT040 BKN100 08/03 Q1020 NOSIG=
16 Sri Nagar VISR 180430Z VRB01KT 6000 SCT025 19/14 Q1014 NOSIG=
17 Jammu VIJU 180430Z 18004KT 6000 SCT100 30/16 Q1004 NOSIG=
18 Jodhpur VIJO 180430Z 23012G22KT 6000 FEW030 33/21 Q1003 TEMPO 23015G25KT=
19 Jaisalmer VIJR 180430Z 16012KT 6000 SCT018 SCT025 33/23 Q1001 NOSIG=
20 Gorakhpur VEGK 180430Z 32008KT 6000 SKC 36/21 Q1000 NOSIG=
21 Agra VIAG 180430Z 30006KT 6000 FEW030 SCT100 32/22 Q1003 NOSIG=
22 Chandigarh VICG 180430Z 07003KT 6000 SCT030 BKN090 28/19 Q1005 NOSIG=

 

--- End of List ---